Time;durP1;ratioP1;P1;durP2;ratioP2;P2;SDS_P1;SDS_P2;PMS_P1;PMS_P2;Temp;Humidity;BMP_temperature;BMP_pressure;BME280_temperature;BME280_humidity;BME280_pressure;Samples;Min_cycle;Max_cycle;Signal;HPM_P1;HPM_P2
2024/04/24 00:02:07;;;;;;;;;;;6.40;99.90;;;;;;6636699;88;20098;-78
2024/04/24 00:12:08;;;;;;;;;;;5.90;99.90;;;;;;6675621;88;20147;-79
2024/04/24 00:22:08;;;;;;;;;;;5.60;99.90;;;;;;6631897;89;20068;-78
2024/04/24 00:32:09;;;;;;;;;;;5.60;99.90;;;;;;6637510;89;20153;-78
2024/04/24 00:42:19;;;;;;;;;;;5.50;99.90;;;;;;6660929;88;20092;-79
2024/04/24 00:52:19;;;;;;;;;;;5.50;99.90;;;;;;6646962;88;20613;-78
2024/04/24 01:02:23;;;;;;;;;;;5.40;99.90;;;;;;6642039;89;20056;-79
2024/04/24 01:12:23;;;;;;;;;;;5.50;99.90;;;;;;6623595;89;20155;-79
2024/04/24 01:22:27;;;;;;;;;;;5.50;99.90;;;;;;6614778;88;20056;-78
2024/04/24 01:32:27;;;;;;;;;;;5.50;99.90;;;;;;6608073;89;20062;-78
2024/04/24 01:42:27;;;;;;;;;;;5.60;99.90;;;;;;6620980;89;20247;-77
2024/04/24 01:52:28;;;;;;;;;;;5.50;99.90;;;;;;6607195;89;20113;-78
2024/04/24 02:02:28;;;;;;;;;;;5.60;99.90;;;;;;6606294;90;20097;-79
2024/04/24 02:12:29;;;;;;;;;;;5.60;99.90;;;;;;6605750;90;20162;-78
2024/04/24 02:22:30;;;;;;;;;;;5.50;99.90;;;;;;6615475;89;20072;-80
2024/04/24 02:32:30;;;;;;;;;;;5.60;99.90;;;;;;6650449;88;20153;-80
2024/04/24 02:42:31;;;;;;;;;;;5.60;99.90;;;;;;6643436;89;20172;-79
2024/04/24 02:52:31;;;;;;;;;;;5.50;99.90;;;;;;6660545;88;20103;-79
2024/04/24 03:02:31;;;;;;;;;;;5.40;99.90;;;;;;6637531;88;20064;-79
2024/04/24 03:12:32;;;;;;;;;;;5.30;99.90;;;;;;6632942;88;20134;-79
2024/04/24 03:22:32;;;;;;;;;;;5.20;99.90;;;;;;6668005;88;20999;-79
2024/04/24 03:32:33;;;;;;;;;;;5.20;99.90;;;;;;6617608;89;20162;-80
2024/04/24 03:42:33;;;;;;;;;;;5.10;99.90;;;;;;6615803;89;20114;-78
2024/04/24 03:52:34;;;;;;;;;;;5.20;99.90;;;;;;6632017;89;20502;-79
2024/04/24 04:02:34;;;;;;;;;;;5.20;99.90;;;;;;6630241;88;20589;-79
2024/04/24 04:12:35;;;;;;;;;;;5.20;99.90;;;;;;6639846;89;20060;-80
2024/04/24 04:22:35;;;;;;;;;;;5.20;99.90;;;;;;6667566;88;20081;-79
2024/04/24 04:32:36;;;;;;;;;;;5.20;99.90;;;;;;6641114;88;20579;-79
2024/04/24 04:42:36;;;;;;;;;;;5.10;99.90;;;;;;6614510;88;20545;-79
2024/04/24 04:52:36;;;;;;;;;;;5.20;99.90;;;;;;6679826;88;20088;-79
2024/04/24 05:02:37;;;;;;;;;;;5.20;99.90;;;;;;6645594;88;20056;-79
2024/04/24 05:12:37;;;;;;;;;;;5.30;99.90;;;;;;6619560;88;20087;-81
2024/04/24 05:22:46;;;;;;;;;;;5.10;99.90;;;;;;6605173;90;20254;-80
2024/04/24 05:32:49;;;;;;;;;;;5.10;99.90;;;;;;6609884;89;20056;-78
2024/04/24 05:42:50;;;;;;;;;;;5.20;99.90;;;;;;6606463;89;20098;-78
2024/04/24 05:52:50;;;;;;;;;;;5.20;99.90;;;;;;6604561;89;20059;-80
2024/04/24 06:02:51;;;;;;;;;;;5.10;99.90;;;;;;6607475;89;20075;-79
2024/04/24 06:12:51;;;;;;;;;;;5.20;99.90;;;;;;6611587;89;20080;-78
2024/04/24 06:22:52;;;;;;;;;;;5.40;99.90;;;;;;6628495;89;20098;-77
2024/04/24 06:32:52;;;;;;;;;;;5.60;99.90;;;;;;6638503;89;20529;-77
2024/04/24 06:42:52;;;;;;;;;;;5.60;99.90;;;;;;6612863;88;20141;-79
2024/04/24 06:52:53;;;;;;;;;;;6.00;99.90;;;;;;6606466;89;20062;-77
2024/04/24 07:02:53;;;;;;;;;;;6.00;99.90;;;;;;6614052;89;20064;-78
2024/04/24 07:12:54;;;;;;;;;;;6.40;99.90;;;;;;6609107;89;20203;-77
2024/04/24 07:22:54;;;;;;;;;;;6.40;99.90;;;;;;6609405;89;20056;-77
2024/04/24 07:32:55;;;;;;;;;;;6.20;99.90;;;;;;6612738;89;20076;-78
2024/04/24 07:42:55;;;;;;;;;;;7.00;99.90;;;;;;6606528;89;20073;-77
2024/04/24 07:52:56;;;;;;;;;;;8.00;99.90;;;;;;6616680;88;20151;-78
2024/04/24 08:02:56;;;;;;;;;;;8.50;99.90;;;;;;6625255;88;20068;-77
2024/04/24 08:12:57;;;;;;;;;;;7.80;99.90;;;;;;6611321;89;20491;-78
2024/04/24 08:22:57;;;;;;;;;;;8.60;99.90;;;;;;6612823;89;20055;-78
2024/04/24 08:32:58;;;;;;;;;;;9.70;99.90;;;;;;6620858;88;20090;-79
2024/04/24 08:42:59;;;;;;;;;;;10.00;99.90;;;;;;6622397;89;20094;-79
2024/04/24 08:53:02;;;;;;;;;;;9.70;99.90;;;;;;6626549;89;20075;-78
2024/04/24 09:03:05;;;;;;;;;;;7.00;99.90;;;;;;6634896;89;20036;-79
2024/04/24 09:13:06;;;;;;;;;;;6.70;99.90;;;;;;6636643;89;20083;-78
2024/04/24 09:23:13;;;;;;;;;;;8.90;99.90;;;;;;6631980;89;20109;-78
2024/04/24 09:33:14;;;;;;;;;;;7.90;99.90;;;;;;6612728;89;20079;-80
2024/04/24 09:43:14;;;;;;;;;;;7.80;99.90;;;;;;6628632;88;20076;-78
2024/04/24 09:53:16;;;;;;;;;;;7.90;99.90;;;;;;6621112;89;20199;-79
2024/04/24 10:03:18;;;;;;;;;;;9.60;99.90;;;;;;6618402;89;20078;-79
2024/04/24 10:13:19;;;;;;;;;;;8.70;99.90;;;;;;6628172;88;20079;-78
2024/04/24 10:23:20;;;;;;;;;;;11.00;99.90;;;;;;6619955;88;20239;-78
2024/04/24 10:33:20;;;;;;;;;;;11.40;99.90;;;;;;6609850;88;20227;-78
2024/04/24 10:43:22;;;;;;;;;;;11.90;99.90;;;;;;6619384;89;20106;-77
2024/04/24 10:53:23;;;;;;;;;;;11.20;99.00;;;;;;6603947;88;20075;-78
2024/04/24 11:03:26;;;;;;;;;;;10.90;99.90;;;;;;6604826;89;20163;-77
2024/04/24 11:13:27;;;;;;;;;;;9.70;99.90;;;;;;6606213;88;20072;-78
2024/04/24 11:23:29;;;;;;;;;;;10.20;99.90;;;;;;6599811;89;20107;-77
2024/04/24 11:33:29;;;;;;;;;;;12.00;99.40;;;;;;6625796;88;20511;-78
2024/04/24 11:43:30;;;;;;;;;;;11.80;99.60;;;;;;6630386;88;20291;-77
2024/04/24 11:53:31;;;;;;;;;;;12.30;99.50;;;;;;6608635;88;20219;-78
2024/04/24 12:03:31;;;;;;;;;;;12.00;99.50;;;;;;6643541;78;20126;-76
2024/04/24 12:13:32;;;;;;;;;;;11.40;99.60;;;;;;6681651;88;20119;-76
2024/04/24 12:23:33;;;;;;;;;;;10.20;99.90;;;;;;6678546;88;20538;-76
2024/04/24 12:33:35;;;;;;;;;;;9.70;99.90;;;;;;6683633;88;20076;-75
2024/04/24 12:43:35;;;;;;;;;;;11.30;99.90;;;;;;6676579;88;20088;-76
2024/04/24 12:53:35;;;;;;;;;;;11.30;99.90;;;;;;6678266;88;20097;-75
2024/04/24 13:03:36;;;;;;;;;;;10.20;99.90;;;;;;6679195;88;20093;-76
2024/04/24 13:13:36;;;;;;;;;;;8.80;99.90;;;;;;6675886;88;20498;-76
2024/04/24 13:23:37;;;;;;;;;;;10.00;99.90;;;;;;6675447;88;20151;-75
2024/04/24 13:33:37;;;;;;;;;;;12.50;99.90;;;;;;6673691;88;20061;-76
2024/04/24 13:43:38;;;;;;;;;;;13.60;99.90;;;;;;6667735;88;20676;-75
2024/04/24 13:53:38;;;;;;;;;;;11.80;99.90;;;;;;6679495;88;20119;-76
2024/04/24 14:03:39;;;;;;;;;;;12.70;99.90;;;;;;6673972;88;20081;-76
2024/04/24 14:13:40;;;;;;;;;;;10.70;99.90;;;;;;6677179;88;20091;-77
2024/04/24 14:23:40;;;;;;;;;;;8.90;99.90;;;;;;6678199;88;20081;-76
2024/04/24 14:33:42;;;;;;;;;;;8.70;99.90;;;;;;6672306;88;20045;-76
2024/04/24 14:43:42;;;;;;;;;;;9.80;99.90;;;;;;6677790;88;20542;-76
2024/04/24 14:53:43;;;;;;;;;;;10.50;99.90;;;;;;6683313;88;20064;-76
2024/04/24 15:03:43;;;;;;;;;;;8.40;99.90;;;;;;6676645;88;20063;-76
2024/04/24 15:13:43;;;;;;;;;;;7.50;99.90;;;;;;6678724;88;20073;-74
2024/04/24 15:23:45;;;;;;;;;;;8.60;99.90;;;;;;6675564;88;20623;-75
2024/04/24 15:33:46;;;;;;;;;;;8.20;99.90;;;;;;6684139;88;20075;-74
2024/04/24 15:43:46;;;;;;;;;;;7.80;99.90;;;;;;6678871;88;20102;-74
2024/04/24 15:53:47;;;;;;;;;;;7.90;99.90;;;;;;6675786;88;20188;-76
2024/04/24 16:03:47;;;;;;;;;;;7.70;99.90;;;;;;6675117;88;20126;-75
2024/04/24 16:13:48;;;;;;;;;;;7.40;99.90;;;;;;6668658;88;20068;-74
2024/04/24 16:23:48;;;;;;;;;;;7.60;99.90;;;;;;6674601;88;20064;-74
2024/04/24 16:33:49;;;;;;;;;;;8.10;99.90;;;;;;6681585;88;20067;-74
2024/04/24 16:43:50;;;;;;;;;;;8.40;99.90;;;;;;6677979;88;20543;-74
2024/04/24 16:53:51;;;;;;;;;;;8.30;99.90;;;;;;6683737;88;20077;-74
2024/04/24 17:03:51;;;;;;;;;;;8.10;99.90;;;;;;6681415;88;20472;-74
2024/04/24 17:13:52;;;;;;;;;;;8.00;99.90;;;;;;6680992;88;20187;-74
2024/04/24 17:23:53;;;;;;;;;;;7.90;99.90;;;;;;6675259;88;20470;-74
2024/04/24 17:33:53;;;;;;;;;;;7.70;99.90;;;;;;6686012;88;20061;-75
2024/04/24 17:43:54;;;;;;;;;;;7.50;99.90;;;;;;6677459;88;20082;-75
2024/04/24 17:53:54;;;;;;;;;;;7.40;99.90;;;;;;6677043;88;20076;-75
2024/04/24 18:03:55;;;;;;;;;;;7.30;99.90;;;;;;6680581;88;20140;-75
2024/04/24 18:13:55;;;;;;;;;;;7.10;99.90;;;;;;6708736;77;20085;-80
2024/04/24 18:23:56;;;;;;;;;;;6.90;99.90;;;;;;6737023;88;20078;-78
2024/04/24 18:33:56;;;;;;;;;;;6.80;99.90;;;;;;6725845;88;20059;-76
2024/04/24 18:43:58;;;;;;;;;;;6.60;99.90;;;;;;6715913;88;20507;-77
2024/04/24 18:53:58;;;;;;;;;;;6.30;99.90;;;;;;6724733;88;20078;-77
2024/04/24 19:03:59;;;;;;;;;;;5.70;99.90;;;;;;6723177;88;20066;-78
2024/04/24 19:13:59;;;;;;;;;;;5.50;99.90;;;;;;6717162;88;20553;-79
2024/04/24 19:24:00;;;;;;;;;;;5.50;99.90;;;;;;6718394;88;20481;-79
2024/04/24 19:34:00;;;;;;;;;;;5.60;99.90;;;;;;6728882;88;20066;-78
2024/04/24 19:44:01;;;;;;;;;;;5.60;99.90;;;;;;6723030;88;20469;-79
2024/04/24 19:54:01;;;;;;;;;;;5.60;99.90;;;;;;6717186;88;20062;-78
2024/04/24 20:04:02;;;;;;;;;;;5.70;99.90;;;;;;6722284;88;20184;-78
2024/04/24 20:14:03;;;;;;;;;;;5.60;99.90;;;;;;6720103;88;20068;-79
2024/04/24 20:24:04;;;;;;;;;;;5.60;99.90;;;;;;6704002;88;20064;-80
2024/04/24 20:34:05;;;;;;;;;;;5.60;99.90;;;;;;6706935;88;20544;-78
2024/04/24 20:44:05;;;;;;;;;;;5.60;99.90;;;;;;6712373;88;20043;-78
2024/04/24 20:54:06;;;;;;;;;;;5.50;99.90;;;;;;6697883;88;20072;-78
2024/04/24 21:04:07;;;;;;;;;;;5.60;99.90;;;;;;6706557;88;20077;-78
2024/04/24 21:14:07;;;;;;;;;;;5.60;99.90;;;;;;6710200;88;20585;-78
2024/04/24 21:24:08;;;;;;;;;;;5.60;99.90;;;;;;6721985;88;20121;-78
2024/04/24 21:34:08;;;;;;;;;;;5.60;99.90;;;;;;6718534;88;20066;-78
2024/04/24 21:44:09;;;;;;;;;;;5.60;99.90;;;;;;6718652;88;20488;-78
2024/04/24 21:54:09;;;;;;;;;;;5.50;99.90;;;;;;6720601;88;20067;-79
2024/04/24 22:04:10;;;;;;;;;;;5.50;99.90;;;;;;6721052;88;20152;-78
2024/04/24 22:14:10;;;;;;;;;;;5.50;99.90;;;;;;6721779;88;20067;-78
2024/04/24 22:24:11;;;;;;;;;;;5.40;99.90;;;;;;6708500;88;20057;-78
2024/04/24 22:34:11;;;;;;;;;;;5.50;99.90;;;;;;6719023;88;20090;-79
2024/04/24 22:44:11;;;;;;;;;;;5.50;99.90;;;;;;6712409;88;20066;-79
2024/04/24 22:54:12;;;;;;;;;;;5.50;99.90;;;;;;6700893;88;20071;-78
2024/04/24 23:04:12;;;;;;;;;;;5.50;99.90;;;;;;6704934;88;20604;-78
2024/04/24 23:14:13;;;;;;;;;;;5.50;99.90;;;;;;6714581;88;20158;-79
2024/04/24 23:24:13;;;;;;;;;;;5.40;99.90;;;;;;6718792;88;20604;-78
2024/04/24 23:34:14;;;;;;;;;;;5.40;99.90;;;;;;6731088;88;20215;-78
2024/04/24 23:44:14;;;;;;;;;;;5.40;99.90;;;;;;6720842;88;20166;-78
2024/04/24 23:54:15;;;;;;;;;;;5.40;99.90;;;;;;6724825;88;20196;-78
